sensor_id;sensor_type;location;lat;lon;timestamp;P1;durP1;ratioP1;P2;durP2;ratioP2
14015;SDS011;7083;48.854;9.158;2023-02-21T00:01:06;1999.90;;;999.90;;
14015;SDS011;7083;48.854;9.158;2023-02-21T00:03:50;1999.90;;;999.90;;
14015;SDS011;7083;48.854;9.158;2023-02-21T00:06:36;1999.90;;;999.90;;
14015;SDS011;7083;48.854;9.158;2023-02-21T00:09:20;1999.90;;;999.90;;
14015;SDS011;7083;48.854;9.158;2023-02-21T00:12:04;1999.90;;;999.90;;
14015;SDS011;7083;48.854;9.158;2023-02-21T00:14:48;1999.90;;;999.90;;
14015;SDS011;7083;48.854;9.158;2023-02-21T00:17:33;1999.90;;;999.90;;
14015;SDS011;7083;48.854;9.158;2023-02-21T00:20:17;1999.90;;;999.90;;
14015;SDS011;7083;48.854;9.158;2023-02-21T00:23:03;1999.90;;;999.90;;
14015;SDS011;7083;48.854;9.158;2023-02-21T00:25:47;1999.90;;;999.90;;
14015;SDS011;7083;48.854;9.158;2023-02-21T00:28:31;1999.90;;;999.90;;
14015;SDS011;7083;48.854;9.158;2023-02-21T00:31:17;1999.90;;;999.90;;
14015;SDS011;7083;48.854;9.158;2023-02-21T00:34:01;1999.90;;;999.90;;
14015;SDS011;7083;48.854;9.158;2023-02-21T00:36:45;1401.07;;;731.63;;
14015;SDS011;7083;48.854;9.158;2023-02-21T00:39:31;1999.90;;;999.90;;
14015;SDS011;7083;48.854;9.158;2023-02-21T00:42:15;1395.10;;;725.93;;
14015;SDS011;7083;48.854;9.158;2023-02-21T00:44:59;1999.90;;;999.90;;
14015;SDS011;7083;48.854;9.158;2023-02-21T00:47:43;1999.90;;;999.90;;
14015;SDS011;7083;48.854;9.158;2023-02-21T00:50:27;1999.90;;;999.90;;
14015;SDS011;7083;48.854;9.158;2023-02-21T00:53:11;1999.90;;;999.90;;
14015;SDS011;7083;48.854;9.158;2023-02-21T00:55:57;1999.90;;;999.90;;
14015;SDS011;7083;48.854;9.158;2023-02-21T00:58:41;1999.90;;;999.90;;
14015;SDS011;7083;48.854;9.158;2023-02-21T01:01:25;1999.90;;;999.90;;
14015;SDS011;7083;48.854;9.158;2023-02-21T01:04:09;1999.90;;;999.90;;
14015;SDS011;7083;48.854;9.158;2023-02-21T01:06:53;1999.90;;;999.90;;
14015;SDS011;7083;48.854;9.158;2023-02-21T01:09:37;1999.90;;;999.90;;
14015;SDS011;7083;48.854;9.158;2023-02-21T01:12:23;1999.90;;;999.90;;
14015;SDS011;7083;48.854;9.158;2023-02-21T01:15:07;1999.90;;;999.90;;
14015;SDS011;7083;48.854;9.158;2023-02-21T01:17:51;1999.90;;;999.90;;
14015;SDS011;7083;48.854;9.158;2023-02-21T01:20:36;1999.90;;;999.90;;
14015;SDS011;7083;48.854;9.158;2023-02-21T01:23:20;1999.90;;;999.90;;
14015;SDS011;7083;48.854;9.158;2023-02-21T01:26:04;1999.90;;;999.90;;
14015;SDS011;7083;48.854;9.158;2023-02-21T01:28:52;1999.90;;;999.90;;
14015;SDS011;7083;48.854;9.158;2023-02-21T01:31:36;1999.90;;;999.90;;
14015;SDS011;7083;48.854;9.158;2023-02-21T01:34:20;1999.90;;;999.90;;
14015;SDS011;7083;48.854;9.158;2023-02-21T01:37:05;1999.90;;;999.90;;
14015;SDS011;7083;48.854;9.158;2023-02-21T01:39:49;1999.90;;;999.90;;
14015;SDS011;7083;48.854;9.158;2023-02-21T01:42:33;1999.90;;;999.90;;
14015;SDS011;7083;48.854;9.158;2023-02-21T01:45:28;1999.90;;;999.90;;
14015;SDS011;7083;48.854;9.158;2023-02-21T01:48:29;1999.90;;;999.90;;
14015;SDS011;7083;48.854;9.158;2023-02-21T01:51:16;1999.90;;;999.90;;
14015;SDS011;7083;48.854;9.158;2023-02-21T01:54:03;1999.90;;;999.90;;
14015;SDS011;7083;48.854;9.158;2023-02-21T01:56:50;1999.90;;;999.90;;
14015;SDS011;7083;48.854;9.158;2023-02-21T01:59:35;1999.90;;;999.90;;
14015;SDS011;7083;48.854;9.158;2023-02-21T02:02:21;1999.90;;;999.90;;
14015;SDS011;7083;48.854;9.158;2023-02-21T02:05:09;1999.90;;;999.90;;
14015;SDS011;7083;48.854;9.158;2023-02-21T02:07:55;1999.90;;;999.90;;
14015;SDS011;7083;48.854;9.158;2023-02-21T02:10:39;1999.90;;;999.90;;
14015;SDS011;7083;48.854;9.158;2023-02-21T02:13:28;1445.67;;;774.40;;
14015;SDS011;7083;48.854;9.158;2023-02-21T02:16:13;1999.90;;;999.90;;
14015;SDS011;7083;48.854;9.158;2023-02-21T02:18:54;1999.90;;;999.90;;
14015;SDS011;7083;48.854;9.158;2023-02-21T02:21:34;1999.90;;;999.90;;
14015;SDS011;7083;48.854;9.158;2023-02-21T02:24:26;1999.90;;;999.90;;
14015;SDS011;7083;48.854;9.158;2023-02-21T02:30:34;1999.90;;;999.90;;
14015;SDS011;7083;48.854;9.158;2023-02-21T02:36:35;1999.90;;;999.90;;
14015;SDS011;7083;48.854;9.158;2023-02-21T02:39:09;1999.90;;;999.90;;
14015;SDS011;7083;48.854;9.158;2023-02-21T02:41:45;1999.90;;;999.90;;
14015;SDS011;7083;48.854;9.158;2023-02-21T02:44:18;1999.90;;;999.90;;
14015;SDS011;7083;48.854;9.158;2023-02-21T02:46:50;1465.03;;;793.00;;
14015;SDS011;7083;48.854;9.158;2023-02-21T02:49:19;1449.03;;;777.53;;
14015;SDS011;7083;48.854;9.158;2023-02-21T02:51:50;1458.00;;;786.23;;
14015;SDS011;7083;48.854;9.158;2023-02-21T02:54:17;388.27;;;372.53;;
14015;SDS011;7083;48.854;9.158;2023-02-21T02:56:44;1999.90;;;999.90;;
14015;SDS011;7083;48.854;9.158;2023-02-21T02:59:13;1454.00;;;782.37;;
14015;SDS011;7083;48.854;9.158;2023-02-21T03:01:51;1999.90;;;999.90;;
14015;SDS011;7083;48.854;9.158;2023-02-21T03:07:36;1999.90;;;999.90;;
14015;SDS011;7083;48.854;9.158;2023-02-21T03:10:11;1999.90;;;999.90;;
14015;SDS011;7083;48.854;9.158;2023-02-21T03:12:43;1455.70;;;784.07;;
14015;SDS011;7083;48.854;9.158;2023-02-21T03:15:16;1999.90;;;999.90;;
14015;SDS011;7083;48.854;9.158;2023-02-21T03:17:47;1457.73;;;785.90;;
14015;SDS011;7083;48.854;9.158;2023-02-21T03:20:19;1999.90;;;999.90;;
14015;SDS011;7083;48.854;9.158;2023-02-21T03:22:48;1444.30;;;773.20;;
14015;SDS011;7083;48.854;9.158;2023-02-21T03:25:17;298.27;;;285.67;;
14015;SDS011;7083;48.854;9.158;2023-02-21T03:27:46;1450.80;;;779.37;;
14015;SDS011;7083;48.854;9.158;2023-02-21T03:30:13;341.83;;;328.13;;
14015;SDS011;7083;48.854;9.158;2023-02-21T03:32:42;1459.77;;;787.93;;
14015;SDS011;7083;48.854;9.158;2023-02-21T03:35:12;1999.90;;;999.90;;
14015;SDS011;7083;48.854;9.158;2023-02-21T03:37:40;1444.97;;;773.83;;
14015;SDS011;7083;48.854;9.158;2023-02-21T03:40:10;1444.43;;;773.33;;
14015;SDS011;7083;48.854;9.158;2023-02-21T03:42:38;1445.10;;;773.93;;
14015;SDS011;7083;48.854;9.158;2023-02-21T03:45:05;1999.90;;;999.90;;
14015;SDS011;7083;48.854;9.158;2023-02-21T03:47:32;1999.90;;;999.90;;
14015;SDS011;7083;48.854;9.158;2023-02-21T03:49:59;1455.60;;;783.93;;
14015;SDS011;7083;48.854;9.158;2023-02-21T03:52:26;1999.90;;;999.90;;
14015;SDS011;7083;48.854;9.158;2023-02-21T03:54:52;1999.90;;;999.90;;
14015;SDS011;7083;48.854;9.158;2023-02-21T03:57:20;1445.60;;;774.40;;
14015;SDS011;7083;48.854;9.158;2023-02-21T03:59:47;1447.97;;;776.63;;
14015;SDS011;7083;48.854;9.158;2023-02-21T04:02:14;321.20;;;308.53;;
14015;SDS011;7083;48.854;9.158;2023-02-21T04:04:41;285.97;;;274.70;;
14015;SDS011;7083;48.854;9.158;2023-02-21T04:07:08;325.90;;;313.00;;
14015;SDS011;7083;48.854;9.158;2023-02-21T04:09:35;1447.33;;;776.03;;
14015;SDS011;7083;48.854;9.158;2023-02-21T04:12:03;1448.37;;;777.07;;
14015;SDS011;7083;48.854;9.158;2023-02-21T04:14:31;252.77;;;242.97;;
14015;SDS011;7083;48.854;9.158;2023-02-21T04:16:58;227.67;;;218.77;;
14015;SDS011;7083;48.854;9.158;2023-02-21T04:19:25;273.17;;;262.27;;
14015;SDS011;7083;48.854;9.158;2023-02-21T04:21:51;279.20;;;268.00;;
14015;SDS011;7083;48.854;9.158;2023-02-21T04:24:18;213.03;;;204.60;;
14015;SDS011;7083;48.854;9.158;2023-02-21T04:26:45;245.23;;;235.50;;
14015;SDS011;7083;48.854;9.158;2023-02-21T04:29:11;259.53;;;249.40;;
14015;SDS011;7083;48.854;9.158;2023-02-21T04:31:40;1427.03;;;756.63;;
14015;SDS011;7083;48.854;9.158;2023-02-21T04:34:06;310.33;;;298.03;;
14015;SDS011;7083;48.854;9.158;2023-02-21T04:36:33;1432.33;;;761.77;;
14015;SDS011;7083;48.854;9.158;2023-02-21T04:39:01;289.67;;;278.27;;
14015;SDS011;7083;48.854;9.158;2023-02-21T04:41:28;1434.20;;;763.57;;
14015;SDS011;7083;48.854;9.158;2023-02-21T04:43:55;261.13;;;250.90;;
14015;SDS011;7083;48.854;9.158;2023-02-21T04:46:21;1432.67;;;762.10;;
14015;SDS011;7083;48.854;9.158;2023-02-21T04:48:50;1427.43;;;757.10;;
14015;SDS011;7083;48.854;9.158;2023-02-21T04:51:18;237.87;;;228.53;;
14015;SDS011;7083;48.854;9.158;2023-02-21T04:53:48;242.03;;;232.57;;
14015;SDS011;7083;48.854;9.158;2023-02-21T04:56:16;250.97;;;241.00;;
14015;SDS011;7083;48.854;9.158;2023-02-21T04:58:45;239.57;;;230.27;;
14015;SDS011;7083;48.854;9.158;2023-02-21T05:01:12;263.80;;;253.20;;
14015;SDS011;7083;48.854;9.158;2023-02-21T05:03:39;207.67;;;199.53;;
14015;SDS011;7083;48.854;9.158;2023-02-21T05:06:07;217.93;;;209.33;;
14015;SDS011;7083;48.854;9.158;2023-02-21T05:08:34;208.23;;;200.10;;
14015;SDS011;7083;48.854;9.158;2023-02-21T05:11:01;202.67;;;194.60;;
14015;SDS011;7083;48.854;9.158;2023-02-21T05:13:28;202.97;;;195.03;;
14015;SDS011;7083;48.854;9.158;2023-02-21T05:15:54;192.13;;;184.47;;
14015;SDS011;7083;48.854;9.158;2023-02-21T05:18:21;194.10;;;186.47;;
14015;SDS011;7083;48.854;9.158;2023-02-21T05:20:52;213.17;;;204.80;;
14015;SDS011;7083;48.854;9.158;2023-02-21T05:23:21;225.30;;;216.43;;
14015;SDS011;7083;48.854;9.158;2023-02-21T05:25:57;217.63;;;209.13;;
14015;SDS011;7083;48.854;9.158;2023-02-21T05:28:24;223.23;;;214.47;;
14015;SDS011;7083;48.854;9.158;2023-02-21T05:30:51;216.37;;;207.73;;
14015;SDS011;7083;48.854;9.158;2023-02-21T05:33:18;219.50;;;210.73;;
14015;SDS011;7083;48.854;9.158;2023-02-21T05:35:45;212.20;;;203.83;;
14015;SDS011;7083;48.854;9.158;2023-02-21T05:38:12;215.73;;;207.23;;
14015;SDS011;7083;48.854;9.158;2023-02-21T05:40:40;223.00;;;214.03;;
14015;SDS011;7083;48.854;9.158;2023-02-21T05:43:06;239.43;;;229.73;;
14015;SDS011;7083;48.854;9.158;2023-02-21T05:45:33;224.63;;;215.60;;
14015;SDS011;7083;48.854;9.158;2023-02-21T05:48:00;237.03;;;227.60;;
14015;SDS011;7083;48.854;9.158;2023-02-21T05:50:27;225.13;;;216.23;;
14015;SDS011;7083;48.854;9.158;2023-02-21T05:52:54;226.67;;;217.63;;
14015;SDS011;7083;48.854;9.158;2023-02-21T05:55:21;222.23;;;213.53;;
14015;SDS011;7083;48.854;9.158;2023-02-21T05:57:49;246.77;;;236.90;;
14015;SDS011;7083;48.854;9.158;2023-02-21T06:00:16;244.17;;;234.43;;
14015;SDS011;7083;48.854;9.158;2023-02-21T06:02:44;235.73;;;226.37;;
14015;SDS011;7083;48.854;9.158;2023-02-21T06:05:11;234.87;;;225.67;;
14015;SDS011;7083;48.854;9.158;2023-02-21T06:07:38;222.50;;;213.47;;
14015;SDS011;7083;48.854;9.158;2023-02-21T06:10:05;245.47;;;235.90;;
14015;SDS011;7083;48.854;9.158;2023-02-21T06:12:31;257.07;;;246.97;;
14015;SDS011;7083;48.854;9.158;2023-02-21T06:15:00;244.53;;;234.80;;
14015;SDS011;7083;48.854;9.158;2023-02-21T06:17:31;267.77;;;256.93;;
14015;SDS011;7083;48.854;9.158;2023-02-21T06:19:58;251.43;;;241.60;;
14015;SDS011;7083;48.854;9.158;2023-02-21T06:22:24;272.00;;;260.97;;
14015;SDS011;7083;48.854;9.158;2023-02-21T06:24:51;252.13;;;242.30;;
14015;SDS011;7083;48.854;9.158;2023-02-21T06:27:18;265.37;;;254.77;;
14015;SDS011;7083;48.854;9.158;2023-02-21T06:29:44;263.97;;;253.63;;
14015;SDS011;7083;48.854;9.158;2023-02-21T06:32:12;253.93;;;243.73;;
14015;SDS011;7083;48.854;9.158;2023-02-21T06:34:39;259.57;;;249.23;;
14015;SDS011;7083;48.854;9.158;2023-02-21T06:37:08;256.77;;;246.53;;
14015;SDS011;7083;48.854;9.158;2023-02-21T06:39:36;275.60;;;264.60;;
14015;SDS011;7083;48.854;9.158;2023-02-21T06:42:03;269.60;;;259.17;;
14015;SDS011;7083;48.854;9.158;2023-02-21T06:44:30;286.60;;;275.23;;
14015;SDS011;7083;48.854;9.158;2023-02-21T06:46:57;287.83;;;276.53;;
14015;SDS011;7083;48.854;9.158;2023-02-21T06:49:25;295.07;;;283.43;;
14015;SDS011;7083;48.854;9.158;2023-02-21T06:51:51;298.37;;;286.37;;
14015;SDS011;7083;48.854;9.158;2023-02-21T06:54:18;313.87;;;301.43;;
14015;SDS011;7083;48.854;9.158;2023-02-21T06:56:45;310.70;;;298.20;;
14015;SDS011;7083;48.854;9.158;2023-02-21T06:59:12;322.50;;;309.77;;
14015;SDS011;7083;48.854;9.158;2023-02-21T07:01:39;306.57;;;294.33;;
14015;SDS011;7083;48.854;9.158;2023-02-21T07:04:05;302.37;;;290.27;;
14015;SDS011;7083;48.854;9.158;2023-02-21T07:06:33;318.20;;;305.73;;
14015;SDS011;7083;48.854;9.158;2023-02-21T07:09:00;323.57;;;310.63;;
14015;SDS011;7083;48.854;9.158;2023-02-21T07:11:27;328.03;;;314.93;;
14015;SDS011;7083;48.854;9.158;2023-02-21T07:13:56;342.83;;;329.27;;
14015;SDS011;7083;48.854;9.158;2023-02-21T07:16:23;331.73;;;318.53;;
14015;SDS011;7083;48.854;9.158;2023-02-21T07:18:50;329.17;;;316.07;;
14015;SDS011;7083;48.854;9.158;2023-02-21T07:21:17;325.27;;;312.27;;
14015;SDS011;7083;48.854;9.158;2023-02-21T07:23:47;336.00;;;322.47;;
14015;SDS011;7083;48.854;9.158;2023-02-21T07:26:14;309.53;;;297.37;;
14015;SDS011;7083;48.854;9.158;2023-02-21T07:28:41;325.87;;;313.00;;
14015;SDS011;7083;48.854;9.158;2023-02-21T07:31:07;273.70;;;262.73;;
14015;SDS011;7083;48.854;9.158;2023-02-21T07:33:35;275.10;;;264.00;;
14015;SDS011;7083;48.854;9.158;2023-02-21T07:36:02;246.43;;;236.77;;
14015;SDS011;7083;48.854;9.158;2023-02-21T07:38:29;247.77;;;238.00;;
14015;SDS011;7083;48.854;9.158;2023-02-21T07:40:58;228.20;;;218.93;;
14015;SDS011;7083;48.854;9.158;2023-02-21T07:43:27;212.87;;;204.40;;
14015;SDS011;7083;48.854;9.158;2023-02-21T07:45:55;204.17;;;195.87;;
14015;SDS011;7083;48.854;9.158;2023-02-21T07:48:22;187.57;;;179.23;;
14015;SDS011;7083;48.854;9.158;2023-02-21T07:50:49;180.87;;;173.57;;
14015;SDS011;7083;48.854;9.158;2023-02-21T07:53:16;173.60;;;166.77;;
14015;SDS011;7083;48.854;9.158;2023-02-21T07:55:43;151.20;;;144.93;;
14015;SDS011;7083;48.854;9.158;2023-02-21T07:58:11;154.27;;;147.93;;
14015;SDS011;7083;48.854;9.158;2023-02-21T08:00:38;145.00;;;139.20;;
14015;SDS011;7083;48.854;9.158;2023-02-21T08:03:05;157.20;;;150.87;;
14015;SDS011;7083;48.854;9.158;2023-02-21T08:05:31;160.23;;;153.77;;
14015;SDS011;7083;48.854;9.158;2023-02-21T08:07:58;147.23;;;141.03;;
14015;SDS011;7083;48.854;9.158;2023-02-21T08:10:25;170.13;;;163.33;;
14015;SDS011;7083;48.854;9.158;2023-02-21T08:12:53;161.27;;;154.53;;
14015;SDS011;7083;48.854;9.158;2023-02-21T08:15:21;176.00;;;168.87;;
14015;SDS011;7083;48.854;9.158;2023-02-21T08:17:48;219.93;;;211.13;;
14015;SDS011;7083;48.854;9.158;2023-02-21T08:20:15;202.43;;;194.27;;
14015;SDS011;7083;48.854;9.158;2023-02-21T08:22:42;247.07;;;237.43;;
14015;SDS011;7083;48.854;9.158;2023-02-21T08:25:09;213.70;;;205.20;;
14015;SDS011;7083;48.854;9.158;2023-02-21T08:27:37;193.37;;;185.70;;
14015;SDS011;7083;48.854;9.158;2023-02-21T08:30:04;203.17;;;195.10;;
14015;SDS011;7083;48.854;9.158;2023-02-21T08:32:34;192.80;;;185.20;;
14015;SDS011;7083;48.854;9.158;2023-02-21T08:35:01;208.77;;;200.37;;
14015;SDS011;7083;48.854;9.158;2023-02-21T08:37:29;210.77;;;202.37;;
14015;SDS011;7083;48.854;9.158;2023-02-21T08:40:00;221.87;;;213.17;;
14015;SDS011;7083;48.854;9.158;2023-02-21T08:42:28;233.10;;;223.93;;
14015;SDS011;7083;48.854;9.158;2023-02-21T08:44:55;260.77;;;250.40;;
14015;SDS011;7083;48.854;9.158;2023-02-21T08:47:21;249.57;;;239.40;;
14015;SDS011;7083;48.854;9.158;2023-02-21T08:49:50;547.35;;;522.03;;
14015;SDS011;7083;48.854;9.158;2023-02-21T08:52:17;232.23;;;223.17;;
14015;SDS011;7083;48.854;9.158;2023-02-21T08:54:45;226.83;;;217.90;;
14015;SDS011;7083;48.854;9.158;2023-02-21T08:57:12;215.47;;;206.50;;
14015;SDS011;7083;48.854;9.158;2023-02-21T08:59:39;228.43;;;218.87;;
14015;SDS011;7083;48.854;9.158;2023-02-21T09:02:08;212.20;;;203.70;;
14015;SDS011;7083;48.854;9.158;2023-02-21T09:04:40;235.47;;;226.17;;
14015;SDS011;7083;48.854;9.158;2023-02-21T09:07:08;198.37;;;190.33;;
14015;SDS011;7083;48.854;9.158;2023-02-21T09:09:36;218.00;;;209.40;;
14015;SDS011;7083;48.854;9.158;2023-02-21T09:12:03;216.43;;;206.43;;
14015;SDS011;7083;48.854;9.158;2023-02-21T09:14:32;226.20;;;217.30;;
14015;SDS011;7083;48.854;9.158;2023-02-21T09:16:59;249.03;;;239.13;;
14015;SDS011;7083;48.854;9.158;2023-02-21T09:19:26;268.57;;;257.87;;
14015;SDS011;7083;48.854;9.158;2023-02-21T09:21:53;293.67;;;281.70;;
14015;SDS011;7083;48.854;9.158;2023-02-21T09:24:22;284.40;;;273.00;;
14015;SDS011;7083;48.854;9.158;2023-02-21T09:26:49;306.60;;;294.43;;
14015;SDS011;7083;48.854;9.158;2023-02-21T09:29:18;301.23;;;288.47;;
14015;SDS011;7083;48.854;9.158;2023-02-21T09:31:45;286.43;;;274.40;;
14015;SDS011;7083;48.854;9.158;2023-02-21T09:34:11;277.83;;;266.93;;
14015;SDS011;7083;48.854;9.158;2023-02-21T09:36:38;265.40;;;254.63;;
14015;SDS011;7083;48.854;9.158;2023-02-21T09:39:05;334.60;;;321.13;;
14015;SDS011;7083;48.854;9.158;2023-02-21T09:41:34;368.50;;;353.50;;
14015;SDS011;7083;48.854;9.158;2023-02-21T09:44:02;384.63;;;368.70;;
14015;SDS011;7083;48.854;9.158;2023-02-21T09:46:31;238.17;;;228.70;;
14015;SDS011;7083;48.854;9.158;2023-02-21T09:49:02;285.33;;;273.93;;
14015;SDS011;7083;48.854;9.158;2023-02-21T09:51:32;372.63;;;357.17;;
14015;SDS011;7083;48.854;9.158;2023-02-21T09:54:01;389.10;;;372.83;;
14015;SDS011;7083;48.854;9.158;2023-02-21T09:56:30;393.63;;;377.50;;
14015;SDS011;7083;48.854;9.158;2023-02-21T09:59:01;433.20;;;415.07;;
14015;SDS011;7083;48.854;9.158;2023-02-21T10:01:32;431.50;;;413.03;;
14015;SDS011;7083;48.854;9.158;2023-02-21T10:04:10;440.17;;;421.37;;
14015;SDS011;7083;48.854;9.158;2023-02-21T10:06:47;459.83;;;439.87;;
14015;SDS011;7083;48.854;9.158;2023-02-21T10:09:23;464.60;;;444.53;;
14015;SDS011;7083;48.854;9.158;2023-02-21T10:12:02;478.50;;;457.63;;
14015;SDS011;7083;48.854;9.158;2023-02-21T10:14:37;529.03;;;504.73;;
14015;SDS011;7083;48.854;9.158;2023-02-21T10:17:17;530.47;;;505.77;;
14015;SDS011;7083;48.854;9.158;2023-02-21T10:19:48;580.07;;;552.23;;
14015;SDS011;7083;48.854;9.158;2023-02-21T10:22:19;515.13;;;490.80;;
14015;SDS011;7083;48.854;9.158;2023-02-21T10:24:48;555.60;;;529.20;;
14015;SDS011;7083;48.854;9.158;2023-02-21T10:27:17;546.47;;;520.50;;
14015;SDS011;7083;48.854;9.158;2023-02-21T10:29:47;610.53;;;580.17;;
14015;SDS011;7083;48.854;9.158;2023-02-21T10:32:19;345.60;;;329.33;;
14015;SDS011;7083;48.854;9.158;2023-02-21T10:34:46;585.73;;;556.70;;
14015;SDS011;7083;48.854;9.158;2023-02-21T10:37:23;621.60;;;590.33;;
14015;SDS011;7083;48.854;9.158;2023-02-21T10:39:58;613.77;;;582.27;;
14015;SDS011;7083;48.854;9.158;2023-02-21T10:42:33;512.17;;;486.73;;
14015;SDS011;7083;48.854;9.158;2023-02-21T10:45:03;639.00;;;606.13;;
14015;SDS011;7083;48.854;9.158;2023-02-21T10:47:32;612.27;;;581.30;;
14015;SDS011;7083;48.854;9.158;2023-02-21T10:50:10;354.30;;;336.83;;
14015;SDS011;7083;48.854;9.158;2023-02-21T10:52:37;551.80;;;522.37;;
14015;SDS011;7083;48.854;9.158;2023-02-21T10:55:14;637.13;;;602.53;;
14015;SDS011;7083;48.854;9.158;2023-02-21T10:57:43;638.70;;;604.77;;
14015;SDS011;7083;48.854;9.158;2023-02-21T11:00:18;676.27;;;640.13;;
14015;SDS011;7083;48.854;9.158;2023-02-21T11:02:49;591.47;;;560.33;;
14015;SDS011;7083;48.854;9.158;2023-02-21T11:05:20;557.53;;;527.33;;
14015;SDS011;7083;48.854;9.158;2023-02-21T11:07:56;528.63;;;499.27;;
14015;SDS011;7083;48.854;9.158;2023-02-21T11:10:26;627.43;;;593.97;;
14015;SDS011;7083;48.854;9.158;2023-02-21T11:13:03;632.73;;;598.27;;
14015;SDS011;7083;48.854;9.158;2023-02-21T11:15:31;539.40;;;509.63;;
14015;SDS011;7083;48.854;9.158;2023-02-21T11:18:10;604.43;;;570.93;;
14015;SDS011;7083;48.854;9.158;2023-02-21T11:20:39;657.87;;;618.67;;
14015;SDS011;7083;48.854;9.158;2023-02-21T11:23:16;616.23;;;578.97;;
14015;SDS011;7083;48.854;9.158;2023-02-21T11:25:45;675.80;;;637.70;;
14015;SDS011;7083;48.854;9.158;2023-02-21T11:28:18;711.93;;;670.20;;
14015;SDS011;7083;48.854;9.158;2023-02-21T11:30:48;694.33;;;654.37;;
14015;SDS011;7083;48.854;9.158;2023-02-21T11:33:17;712.77;;;670.47;;
14015;SDS011;7083;48.854;9.158;2023-02-21T11:35:47;659.10;;;620.00;;
14015;SDS011;7083;48.854;9.158;2023-02-21T11:38:31;620.80;;;584.27;;
14015;SDS011;7083;48.854;9.158;2023-02-21T11:41:00;641.77;;;602.37;;
14015;SDS011;7083;48.854;9.158;2023-02-21T11:43:29;562.87;;;529.00;;
14015;SDS011;7083;48.854;9.158;2023-02-21T11:46:05;512.90;;;483.00;;
14015;SDS011;7083;48.854;9.158;2023-02-21T11:48:55;533.33;;;502.23;;
14015;SDS011;7083;48.854;9.158;2023-02-21T11:51:31;1999.90;;;999.90;;
14015;SDS011;7083;48.854;9.158;2023-02-21T11:54:02;574.70;;;540.63;;
14015;SDS011;7083;48.854;9.158;2023-02-21T11:56:33;1999.90;;;999.90;;
14015;SDS011;7083;48.854;9.158;2023-02-21T11:59:11;1999.90;;;999.90;;
14015;SDS011;7083;48.854;9.158;2023-02-21T12:01:50;1999.90;;;999.90;;
14015;SDS011;7083;48.854;9.158;2023-02-21T12:04:27;1999.90;;;999.90;;
14015;SDS011;7083;48.854;9.158;2023-02-21T12:07:03;1999.90;;;999.90;;
14015;SDS011;7083;48.854;9.158;2023-02-21T12:09:42;1999.90;;;999.90;;
14015;SDS011;7083;48.854;9.158;2023-02-21T12:12:22;1999.90;;;999.90;;
14015;SDS011;7083;48.854;9.158;2023-02-21T12:15:02;1999.90;;;999.90;;
14015;SDS011;7083;48.854;9.158;2023-02-21T12:17:47;1999.90;;;999.90;;
14015;SDS011;7083;48.854;9.158;2023-02-21T12:20:33;1999.90;;;999.90;;
14015;SDS011;7083;48.854;9.158;2023-02-21T12:23:14;1999.90;;;999.90;;
14015;SDS011;7083;48.854;9.158;2023-02-21T12:25:51;1999.90;;;999.90;;
14015;SDS011;7083;48.854;9.158;2023-02-21T12:28:32;1999.90;;;999.90;;
14015;SDS011;7083;48.854;9.158;2023-02-21T12:31:13;1999.90;;;999.90;;
14015;SDS011;7083;48.854;9.158;2023-02-21T12:33:56;1999.90;;;999.90;;
14015;SDS011;7083;48.854;9.158;2023-02-21T12:36:33;1999.90;;;999.90;;
14015;SDS011;7083;48.854;9.158;2023-02-21T12:39:13;1999.90;;;999.90;;
14015;SDS011;7083;48.854;9.158;2023-02-21T12:41:59;1999.90;;;999.90;;
14015;SDS011;7083;48.854;9.158;2023-02-21T12:44:41;1999.90;;;999.90;;
14015;SDS011;7083;48.854;9.158;2023-02-21T12:47:18;1999.90;;;999.90;;
14015;SDS011;7083;48.854;9.158;2023-02-21T12:49:50;1999.90;;;999.90;;
14015;SDS011;7083;48.854;9.158;2023-02-21T12:52:25;1999.90;;;999.90;;
14015;SDS011;7083;48.854;9.158;2023-02-21T12:54:57;1999.90;;;999.90;;
14015;SDS011;7083;48.854;9.158;2023-02-21T12:57:29;1999.90;;;999.90;;
14015;SDS011;7083;48.854;9.158;2023-02-21T13:00:03;1999.90;;;999.90;;
14015;SDS011;7083;48.854;9.158;2023-02-21T13:02:44;1999.90;;;999.90;;
14015;SDS011;7083;48.854;9.158;2023-02-21T13:05:22;1999.90;;;999.90;;
14015;SDS011;7083;48.854;9.158;2023-02-21T13:07:55;1999.90;;;999.90;;
14015;SDS011;7083;48.854;9.158;2023-02-21T13:10:27;1999.90;;;999.90;;
14015;SDS011;7083;48.854;9.158;2023-02-21T13:13:00;1999.90;;;999.90;;
14015;SDS011;7083;48.854;9.158;2023-02-21T13:15:32;1999.90;;;999.90;;
14015;SDS011;7083;48.854;9.158;2023-02-21T13:18:04;1999.90;;;999.90;;
14015;SDS011;7083;48.854;9.158;2023-02-21T13:20:44;1999.90;;;999.90;;
14015;SDS011;7083;48.854;9.158;2023-02-21T13:26:04;1999.90;;;999.90;;
14015;SDS011;7083;48.854;9.158;2023-02-21T13:28:42;1999.90;;;999.90;;
14015;SDS011;7083;48.854;9.158;2023-02-21T13:31:16;1999.90;;;999.90;;
14015;SDS011;7083;48.854;9.158;2023-02-21T13:33:48;1999.90;;;999.90;;
14015;SDS011;7083;48.854;9.158;2023-02-21T13:36:19;1999.90;;;999.90;;
14015;SDS011;7083;48.854;9.158;2023-02-21T13:38:56;1999.90;;;999.90;;
14015;SDS011;7083;48.854;9.158;2023-02-21T13:41:27;1999.90;;;999.90;;
14015;SDS011;7083;48.854;9.158;2023-02-21T13:43:58;1999.90;;;999.90;;
14015;SDS011;7083;48.854;9.158;2023-02-21T13:49:50;1999.90;;;999.90;;
14015;SDS011;7083;48.854;9.158;2023-02-21T13:55:28;1999.90;;;999.90;;
14015;SDS011;7083;48.854;9.158;2023-02-21T14:00:55;1999.90;;;999.90;;
14015;SDS011;7083;48.854;9.158;2023-02-21T14:03:29;1999.90;;;999.90;;
14015;SDS011;7083;48.854;9.158;2023-02-21T14:08:58;1999.90;;;999.90;;
14015;SDS011;7083;48.854;9.158;2023-02-21T14:11:29;1999.90;;;999.90;;
14015;SDS011;7083;48.854;9.158;2023-02-21T14:14:03;1999.90;;;999.90;;
14015;SDS011;7083;48.854;9.158;2023-02-21T14:16:45;1999.90;;;999.90;;
14015;SDS011;7083;48.854;9.158;2023-02-21T14:19:16;1999.90;;;999.90;;
14015;SDS011;7083;48.854;9.158;2023-02-21T14:21:49;1999.90;;;999.90;;
14015;SDS011;7083;48.854;9.158;2023-02-21T14:24:21;1999.90;;;999.90;;
14015;SDS011;7083;48.854;9.158;2023-02-21T14:26:52;1999.90;;;999.90;;
14015;SDS011;7083;48.854;9.158;2023-02-21T14:29:28;1999.90;;;999.90;;
14015;SDS011;7083;48.854;9.158;2023-02-21T14:34:39;1999.90;;;999.90;;
14015;SDS011;7083;48.854;9.158;2023-02-21T14:37:11;1999.90;;;999.90;;
14015;SDS011;7083;48.854;9.158;2023-02-21T14:39:39;1999.90;;;999.90;;
14015;SDS011;7083;48.854;9.158;2023-02-21T14:42:18;1999.90;;;999.90;;
14015;SDS011;7083;48.854;9.158;2023-02-21T14:44:53;1999.90;;;999.90;;
14015;SDS011;7083;48.854;9.158;2023-02-21T14:47:28;1999.90;;;999.90;;
14015;SDS011;7083;48.854;9.158;2023-02-21T14:50:16;1999.90;;;999.90;;
14015;SDS011;7083;48.854;9.158;2023-02-21T14:53:00;1999.90;;;999.90;;
14015;SDS011;7083;48.854;9.158;2023-02-21T15:02:14;1999.90;;;999.90;;
14015;SDS011;7083;48.854;9.158;2023-02-21T15:04:50;1999.90;;;999.90;;
14015;SDS011;7083;48.854;9.158;2023-02-21T15:07:22;1999.90;;;999.90;;
14015;SDS011;7083;48.854;9.158;2023-02-21T15:10:04;1999.90;;;999.90;;